createdAt,value
2023-02-18T00:01:38.062Z,22.25
2023-02-18T00:04:07.188Z,22.25
2023-02-18T00:06:35.334Z,22.25
2023-02-18T00:09:03.148Z,22.24
2023-02-18T00:11:31.261Z,22.26
2023-02-18T00:13:59.343Z,22.25
2023-02-18T00:16:27.491Z,22.24
2023-02-18T00:18:56.125Z,22.25
2023-02-18T00:21:25.139Z,22.24
2023-02-18T00:23:52.796Z,22.24
2023-02-18T00:26:20.477Z,22.25
2023-02-18T00:28:49.453Z,22.24
2023-02-18T00:31:32.805Z,22.25
2023-02-18T00:34:00.539Z,22.23
2023-02-18T00:36:29.686Z,22.24
2023-02-18T00:38:57.780Z,22.24
2023-02-18T00:41:25.867Z,22.24
2023-02-18T00:43:53.511Z,22.24
2023-02-18T00:46:53.350Z,22.26
2023-02-18T00:49:21.021Z,22.25
2023-02-18T00:51:50.475Z,22.25
2023-02-18T00:54:18.049Z,22.24
2023-02-18T00:56:45.706Z,22.24
2023-02-18T00:59:13.407Z,22.25
2023-02-18T01:01:41.099Z,22.25
2023-02-18T01:04:08.913Z,22.25
2023-02-18T01:06:36.581Z,22.24
2023-02-18T01:09:05.814Z,22.24
2023-02-18T01:11:33.535Z,22.25
2023-02-18T01:14:01.249Z,22.25
2023-02-18T01:16:29.011Z,22.24
2023-02-18T01:18:56.721Z,22.24
2023-02-18T01:21:24.304Z,22.24
2023-02-18T01:23:52.056Z,22.24
2023-02-18T01:26:21.104Z,22.24
2023-02-18T01:28:48.798Z,22.23
2023-02-18T01:31:16.543Z,22.23
2023-02-18T01:33:44.472Z,22.23
2023-02-18T01:36:12.586Z,22.23
2023-02-18T01:38:40.260Z,22.22
2023-02-18T01:41:07.852Z,22.22
2023-02-18T01:43:36.909Z,22.23
2023-02-18T01:46:06.572Z,22.23
2023-02-18T01:48:36.425Z,22.24
2023-02-18T01:51:06.835Z,22.24
2023-02-18T01:53:36.179Z,22.24
2023-02-18T01:56:04.299Z,22.24
2023-02-18T01:58:31.984Z,22.23
2023-02-18T02:01:01.030Z,22.23
2023-02-18T02:03:28.739Z,22.24
2023-02-18T02:05:56.450Z,22.24
2023-02-18T02:08:24.088Z,22.23
2023-02-18T02:10:57.034Z,22.23
2023-02-18T02:13:26.922Z,22.23
2023-02-18T02:15:54.880Z,22.23
2023-02-18T02:19:05.637Z,22.23
2023-02-18T02:21:51.905Z,22.22
2023-02-18T02:24:33.703Z,22.22
2023-02-18T02:27:06.844Z,22.22
2023-02-18T02:29:43.696Z,22.21
2023-02-18T02:32:15.863Z,22.21
2023-02-18T02:34:50.128Z,22.21
2023-02-18T02:37:18.209Z,22.22
2023-02-18T02:39:48.682Z,22.21
2023-02-18T02:42:18.498Z,22.20
2023-02-18T02:44:48.093Z,22.21
2023-02-18T02:47:17.827Z,22.20
2023-02-18T02:49:46.283Z,22.21
2023-02-18T02:52:16.356Z,22.20
2023-02-18T02:54:44.127Z,22.20
2023-02-18T02:57:26.678Z,22.19
2023-02-18T02:59:55.256Z,22.19
2023-02-18T03:02:25.579Z,22.20
2023-02-18T03:05:00.882Z,22.20
2023-02-18T03:07:43.383Z,22.21
2023-02-18T03:10:17.152Z,22.21
2023-02-18T03:12:47.206Z,22.21
2023-02-18T03:15:16.471Z,22.20
2023-02-18T03:17:45.453Z,22.20
2023-02-18T03:20:14.661Z,22.21
2023-02-18T03:22:42.860Z,22.20
2023-02-18T03:25:10.522Z,22.19
2023-02-18T03:27:41.021Z,22.19
2023-02-18T03:30:10.582Z,22.17
2023-02-18T03:32:38.189Z,22.19
2023-02-18T03:35:07.278Z,22.17
2023-02-18T03:37:34.960Z,22.19
2023-02-18T03:40:02.737Z,22.17
2023-02-18T03:42:30.418Z,22.18
2023-02-18T03:45:00.468Z,22.17
2023-02-18T03:47:28.094Z,22.17
2023-02-18T03:49:55.736Z,22.17
2023-02-18T03:52:23.481Z,22.17
2023-02-18T03:54:51.127Z,22.17
2023-02-18T03:57:18.753Z,22.17
2023-02-18T03:59:46.442Z,22.16
2023-02-18T04:02:15.518Z,22.16
2023-02-18T04:04:43.135Z,22.16
2023-02-18T04:07:10.779Z,22.17
2023-02-18T04:09:38.472Z,22.16
2023-02-18T04:12:06.283Z,22.17
2023-02-18T04:14:33.895Z,22.16
2023-02-18T04:17:01.552Z,22.17
2023-02-18T04:19:30.581Z,22.17
2023-02-18T04:21:58.202Z,22.16
2023-02-18T04:24:25.905Z,22.16
2023-02-18T04:26:53.508Z,22.16
2023-02-18T04:29:21.193Z,22.16
2023-02-18T04:31:48.868Z,22.16
2023-02-18T04:34:16.610Z,22.16
2023-02-18T04:36:45.630Z,22.16
2023-02-18T04:39:13.393Z,22.16
2023-02-18T04:41:41.087Z,22.15
2023-02-18T04:44:08.813Z,22.15
2023-02-18T04:46:36.634Z,22.14
2023-02-18T04:49:04.369Z,22.14
2023-02-18T04:51:32.125Z,22.14
2023-02-18T04:54:01.235Z,22.14
2023-02-18T04:56:28.933Z,22.13
2023-02-18T04:58:56.614Z,22.12
2023-02-18T05:01:24.296Z,22.12
2023-02-18T05:03:52.030Z,22.12
2023-02-18T05:06:19.643Z,22.12
2023-02-18T05:08:47.386Z,22.11
2023-02-18T05:11:16.475Z,22.13
2023-02-18T05:13:44.117Z,22.12
2023-02-18T05:16:12.066Z,22.11
2023-02-18T05:18:40.011Z,22.12
2023-02-18T05:21:07.676Z,22.12
2023-02-18T05:23:35.385Z,22.13
2023-02-18T05:26:03.152Z,22.13
2023-02-18T05:28:32.208Z,22.13
2023-02-18T05:31:00.496Z,22.13
2023-02-18T05:33:28.328Z,22.13
2023-02-18T05:35:56.039Z,22.13
2023-02-18T05:38:23.783Z,22.12
2023-02-18T05:40:51.422Z,22.12
2023-02-18T05:43:19.021Z,22.12
2023-02-18T05:45:48.108Z,22.11
2023-02-18T05:48:15.797Z,22.10
2023-02-18T05:50:43.492Z,22.11
2023-02-18T05:53:11.207Z,22.10
2023-02-18T05:55:39.433Z,22.10
2023-02-18T05:58:07.086Z,22.09
2023-02-18T06:00:34.789Z,22.10
2023-02-18T06:03:09.692Z,22.10
2023-02-18T06:05:37.360Z,22.10
2023-02-18T06:08:05.164Z,22.10
2023-02-18T06:10:32.763Z,22.10
2023-02-18T06:13:02.388Z,22.12
2023-02-18T06:15:30.073Z,22.12
2023-02-18T06:17:57.734Z,22.12
2023-02-18T06:20:26.756Z,22.12
2023-02-18T06:22:54.469Z,22.12
2023-02-18T06:25:22.117Z,22.12
2023-02-18T06:27:49.790Z,22.14
2023-02-18T06:30:17.548Z,22.13
2023-02-18T06:32:45.586Z,22.13
2023-02-18T06:35:13.282Z,22.13
2023-02-18T06:37:42.301Z,22.14
2023-02-18T06:40:10.244Z,22.15
2023-02-18T06:42:37.972Z,22.15
2023-02-18T06:45:06.757Z,22.14
2023-02-18T06:47:34.403Z,22.16
2023-02-18T06:50:02.378Z,22.15
2023-02-18T06:52:30.932Z,22.15
2023-02-18T06:55:00.003Z,22.15
2023-02-18T06:57:27.668Z,22.15
2023-02-18T06:59:55.308Z,22.15
2023-02-18T07:02:23.000Z,22.15
2023-02-18T07:04:50.666Z,22.15
2023-02-18T07:07:18.412Z,22.14
2023-02-18T07:09:46.103Z,22.15
2023-02-18T07:12:15.478Z,22.14
2023-02-18T07:14:43.125Z,22.15
2023-02-18T07:17:10.770Z,22.15
2023-02-18T07:19:38.446Z,22.14
2023-02-18T07:22:06.111Z,22.15
2023-02-18T07:24:33.701Z,22.15
2023-02-18T07:27:01.413Z,22.17
2023-02-18T07:29:30.899Z,22.17
2023-02-18T07:31:58.538Z,22.20
2023-02-18T07:34:26.267Z,22.23
2023-02-18T07:36:53.845Z,22.24
2023-02-18T07:39:21.470Z,22.24
2023-02-18T07:41:49.113Z,22.24
2023-02-18T07:44:16.860Z,22.25
2023-02-18T07:46:47.513Z,22.23
2023-02-18T07:49:16.256Z,22.24
2023-02-18T07:51:43.916Z,22.24
2023-02-18T07:54:11.581Z,22.24
2023-02-18T07:56:39.240Z,22.24
2023-02-18T07:59:06.888Z,22.24
2023-02-18T08:01:34.594Z,22.25
2023-02-18T08:04:03.960Z,22.25
2023-02-18T08:06:33.011Z,22.26
2023-02-18T08:09:00.947Z,22.26
2023-02-18T08:11:28.608Z,22.26
2023-02-18T08:13:56.354Z,22.29
2023-02-18T08:16:24.082Z,22.30
2023-02-18T08:18:51.881Z,22.31
2023-02-18T08:21:21.852Z,22.32
2023-02-18T08:23:49.444Z,22.34
2023-02-18T08:26:17.821Z,22.34
2023-02-18T08:28:45.516Z,22.33
2023-02-18T08:31:18.027Z,22.35
2023-02-18T08:33:45.892Z,22.35
2023-02-18T08:36:13.988Z,22.35
2023-02-18T08:38:42.971Z,22.36
2023-02-18T08:41:11.409Z,22.36
2023-02-18T08:43:39.241Z,22.37
2023-02-18T08:46:07.620Z,22.37
2023-02-18T08:48:35.454Z,22.37
2023-02-18T08:51:12.542Z,22.37
2023-02-18T08:53:40.480Z,22.37
2023-02-18T08:56:10.657Z,22.38
2023-02-18T08:58:38.290Z,22.37
2023-02-18T09:01:07.389Z,22.36
2023-02-18T09:03:35.377Z,22.36
2023-02-18T09:06:03.737Z,22.36
2023-02-18T09:08:31.477Z,22.35
2023-02-18T09:11:00.426Z,22.34
2023-02-18T09:13:29.597Z,22.34
2023-02-18T09:15:58.418Z,22.34
2023-02-18T09:18:26.187Z,22.33
2023-02-18T09:20:56.905Z,22.33
2023-02-18T09:23:24.552Z,22.32
2023-02-18T09:25:52.886Z,22.35
2023-02-18T09:28:20.559Z,22.35
2023-02-18T09:30:50.555Z,22.37
2023-02-18T09:33:18.211Z,22.40
2023-02-18T09:35:46.927Z,22.42
2023-02-18T09:38:14.986Z,22.46
2023-02-18T09:40:45.937Z,22.48
2023-02-18T09:43:14.804Z,22.51
2023-02-18T09:45:42.528Z,22.54
2023-02-18T09:48:11.880Z,22.56
2023-02-18T09:50:40.273Z,22.57
2023-02-18T09:53:08.382Z,22.59
2023-02-18T09:55:38.783Z,22.65
2023-02-18T09:58:07.280Z,22.67
2023-02-18T10:00:35.491Z,22.66
2023-02-18T10:03:04.423Z,22.69
2023-02-18T10:05:33.421Z,22.68
2023-02-18T10:08:02.119Z,22.67
2023-02-18T10:10:34.381Z,22.68
2023-02-18T10:13:02.439Z,22.71
2023-02-18T10:15:30.705Z,22.74
2023-02-18T10:17:58.566Z,22.75
2023-02-18T10:20:26.490Z,22.75
2023-02-18T10:22:56.158Z,22.78
2023-02-18T10:25:24.115Z,22.81
2023-02-18T10:27:52.323Z,22.84
2023-02-18T10:30:23.808Z,22.87
2023-02-18T10:32:53.065Z,22.91
2023-02-18T10:35:23.544Z,22.89
2023-02-18T10:37:56.029Z,22.87
2023-02-18T10:40:24.992Z,22.87
2023-02-18T10:42:57.060Z,22.88
2023-02-18T10:45:27.657Z,22.89
2023-02-18T10:47:58.612Z,22.90
2023-02-18T10:50:29.392Z,22.91
2023-02-18T10:52:58.862Z,22.91
2023-02-18T10:55:34.992Z,22.91
2023-02-18T10:58:03.287Z,22.90
2023-02-18T11:00:34.454Z,22.90
2023-02-18T11:03:04.089Z,22.91
2023-02-18T11:05:31.728Z,22.90
2023-02-18T11:08:02.700Z,22.90
2023-02-18T11:10:31.772Z,22.92
2023-02-18T11:13:00.958Z,22.91
2023-02-18T11:15:29.712Z,22.90
2023-02-18T11:17:57.709Z,22.92
2023-02-18T11:20:27.555Z,22.92
2023-02-18T11:22:58.179Z,22.92
2023-02-18T11:25:28.114Z,22.92
2023-02-18T11:27:56.561Z,22.92
2023-02-18T11:30:26.489Z,22.93
2023-02-18T11:32:55.086Z,22.93
2023-02-18T11:35:24.502Z,22.95
2023-02-18T11:37:52.297Z,22.95
2023-02-18T11:40:23.790Z,22.94
2023-02-18T11:42:52.919Z,22.96
2023-02-18T11:45:28.290Z,22.96
2023-02-18T11:48:16.625Z,22.95
2023-02-18T11:50:45.854Z,22.98
2023-02-18T11:53:29.590Z,22.98
2023-02-18T11:55:58.117Z,23.01
2023-02-18T11:58:27.156Z,23.02
2023-02-18T12:00:55.637Z,23.03
2023-02-18T12:03:26.735Z,23.06
2023-02-18T12:05:54.475Z,23.07
2023-02-18T12:08:24.154Z,23.06
2023-02-18T12:10:52.612Z,23.05
2023-02-18T12:13:22.995Z,23.04
2023-02-18T12:15:53.669Z,23.04
2023-02-18T12:18:41.788Z,23.04
2023-02-18T12:21:22.528Z,23.04
2023-02-18T12:23:53.451Z,23.05
2023-02-18T12:26:23.104Z,23.04
2023-02-18T12:28:58.027Z,23.03
2023-02-18T12:31:36.175Z,23.04
2023-02-18T12:34:11.000Z,23.04
2023-02-18T12:36:41.679Z,23.06
2023-02-18T12:39:14.141Z,23.05
2023-02-18T12:41:45.421Z,23.07
2023-02-18T12:44:21.038Z,23.07
2023-02-18T12:46:55.523Z,23.07
2023-02-18T12:49:41.051Z,23.08
2023-02-18T12:52:11.547Z,23.08
2023-02-18T12:54:57.807Z,23.09
2023-02-18T12:57:35.151Z,23.11
2023-02-18T13:00:25.479Z,23.10
2023-02-18T13:03:07.072Z,23.10
2023-02-18T13:05:37.486Z,23.10
2023-02-18T13:08:08.524Z,23.12
2023-02-18T13:10:52.530Z,23.11
2023-02-18T13:13:20.664Z,23.13
2023-02-18T13:15:53.038Z,23.14
2023-02-18T13:18:33.934Z,23.17
2023-02-18T13:21:05.188Z,23.19
2023-02-18T13:23:33.685Z,23.20
2023-02-18T13:26:02.355Z,23.22
2023-02-18T13:28:31.099Z,23.22
2023-02-18T13:31:03.957Z,23.24
2023-02-18T13:33:35.907Z,23.23
2023-02-18T13:36:05.535Z,23.24
2023-02-18T13:38:38.255Z,23.26
2023-02-18T13:41:06.698Z,23.26
2023-02-18T13:43:34.884Z,23.30
2023-02-18T13:46:20.927Z,23.30
2023-02-18T13:48:52.745Z,23.33
2023-02-18T13:51:30.405Z,23.36
2023-02-18T13:54:00.678Z,23.36
2023-02-18T13:56:29.055Z,23.35
2023-02-18T13:58:57.581Z,23.35
2023-02-18T14:01:26.470Z,23.36
2023-02-18T14:04:31.869Z,23.36
2023-02-18T14:07:21.927Z,23.36
2023-02-18T14:09:50.227Z,23.36
2023-02-18T14:12:26.323Z,23.36
2023-02-18T14:14:54.705Z,23.37
2023-02-18T14:17:37.225Z,23.37
2023-02-18T14:20:24.880Z,23.36
2023-02-18T14:22:53.911Z,23.37
2023-02-18T14:25:24.037Z,23.36
2023-02-18T14:27:52.079Z,23.37
2023-02-18T14:30:21.203Z,23.36
2023-02-18T14:32:49.663Z,23.37
2023-02-18T14:35:23.647Z,23.37
2023-02-18T14:37:58.616Z,23.36
2023-02-18T14:40:45.324Z,23.35
2023-02-18T14:43:15.283Z,23.35
2023-02-18T14:45:55.964Z,23.35
2023-02-18T14:48:33.097Z,23.35
2023-02-18T14:51:02.770Z,23.35
2023-02-18T14:53:31.848Z,23.34
2023-02-18T14:56:01.206Z,23.34
2023-02-18T14:58:30.888Z,23.32
2023-02-18T15:00:58.520Z,23.32
2023-02-18T15:03:27.908Z,23.32
2023-02-18T15:05:55.569Z,23.31
2023-02-18T15:08:24.193Z,23.31
2023-02-18T15:10:54.080Z,23.30
2023-02-18T15:13:23.113Z,23.32
2023-02-18T15:15:51.777Z,23.30
2023-02-18T15:18:30.688Z,23.30
2023-02-18T15:20:58.418Z,23.29
2023-02-18T15:23:26.764Z,23.28
2023-02-18T15:25:55.905Z,23.26
2023-02-18T15:28:25.234Z,23.25
2023-02-18T15:30:53.025Z,23.25
2023-02-18T15:33:23.873Z,23.24
2023-02-18T15:35:51.529Z,23.23
2023-02-18T15:38:20.165Z,23.24
2023-02-18T15:40:48.647Z,23.23
2023-02-18T15:43:19.197Z,23.22
2023-02-18T15:45:47.385Z,23.22
2023-02-18T15:48:21.495Z,23.21
2023-02-18T15:50:50.971Z,23.20
2023-02-18T15:53:19.489Z,23.20
2023-02-18T15:55:47.535Z,23.19
2023-02-18T15:58:16.790Z,23.18
2023-02-18T16:00:49.849Z,23.18
2023-02-18T16:03:24.694Z,23.16
2023-02-18T16:05:52.405Z,23.16
2023-02-18T16:08:25.302Z,23.15
2023-02-18T16:10:54.606Z,23.14
2023-02-18T16:13:22.205Z,23.13
2023-02-18T16:15:52.625Z,23.12
2023-02-18T16:18:38.603Z,23.12
2023-02-18T16:21:09.643Z,23.10
2023-02-18T16:23:40.112Z,23.10
2023-02-18T16:26:20.432Z,23.10
2023-02-18T16:28:48.845Z,23.07
2023-02-18T16:31:18.007Z,23.07
2023-02-18T16:33:45.732Z,23.08
2023-02-18T16:36:16.076Z,23.08
2023-02-18T16:38:43.890Z,23.07
2023-02-18T16:41:13.169Z,23.06
2023-02-18T16:43:40.981Z,23.05
2023-02-18T16:46:10.448Z,23.06
2023-02-18T16:48:43.128Z,23.04
2023-02-18T16:51:12.656Z,23.06
2023-02-18T16:53:40.743Z,23.05
2023-02-18T16:56:12.061Z,23.04
2023-02-18T16:58:39.739Z,23.03
2023-02-18T17:01:08.167Z,23.04
2023-02-18T17:03:35.826Z,23.02
2023-02-18T17:06:06.219Z,23.03
2023-02-18T17:08:36.256Z,23.02
2023-02-18T17:11:04.764Z,23.00
2023-02-18T17:13:32.498Z,22.99
2023-02-18T17:16:02.074Z,23.00
2023-02-18T17:18:35.750Z,22.97
2023-02-18T17:21:07.113Z,22.98
2023-02-18T17:23:34.724Z,22.98
2023-02-18T17:26:04.159Z,22.96
2023-02-18T17:28:31.819Z,22.96
2023-02-18T17:31:01.214Z,22.96
2023-02-18T17:33:53.457Z,22.94
2023-02-18T17:36:23.294Z,22.95
2023-02-18T17:38:50.955Z,22.94
2023-02-18T17:41:20.136Z,22.94
2023-02-18T17:43:47.781Z,22.95
2023-02-18T17:46:15.881Z,22.93
2023-02-18T17:48:45.817Z,22.93
2023-02-18T17:51:15.578Z,22.93
2023-02-18T17:53:47.219Z,22.93
2023-02-18T17:56:14.870Z,22.93
2023-02-18T17:58:45.973Z,22.93
2023-02-18T18:01:13.733Z,22.92
2023-02-18T18:03:42.192Z,22.93
2023-02-18T18:06:12.246Z,22.93
2023-02-18T18:08:40.853Z,22.91
2023-02-18T18:11:12.302Z,22.89
2023-02-18T18:13:40.663Z,22.88
2023-02-18T18:16:10.265Z,22.88
2023-02-18T18:18:39.837Z,22.88
2023-02-18T18:21:07.777Z,22.88
2023-02-18T18:23:40.130Z,22.86
2023-02-18T18:26:07.824Z,22.86
2023-02-18T18:28:37.797Z,22.86
2023-02-18T18:31:06.391Z,22.86
2023-02-18T18:33:35.225Z,22.86
2023-02-18T18:36:02.904Z,22.85
2023-02-18T18:38:33.212Z,22.86
2023-02-18T18:41:00.870Z,22.85
2023-02-18T18:43:32.730Z,22.85
2023-02-18T18:46:02.128Z,22.83
2023-02-18T18:48:32.261Z,22.83
2023-02-18T18:51:02.416Z,22.82
2023-02-18T18:53:31.750Z,22.82
2023-02-18T18:55:59.611Z,22.82
2023-02-18T18:58:28.083Z,22.83
2023-02-18T19:00:56.060Z,22.83
2023-02-18T19:03:25.403Z,22.83
2023-02-18T19:05:54.208Z,22.84
2023-02-18T19:08:21.951Z,22.85
2023-02-18T19:10:50.876Z,22.85
2023-02-18T19:13:18.959Z,22.85
2023-02-18T19:15:48.344Z,22.85
2023-02-18T19:18:16.409Z,22.84
2023-02-18T19:20:46.176Z,22.86
2023-02-18T19:23:13.848Z,22.84
2023-02-18T19:25:43.194Z,22.85
2023-02-18T19:28:13.816Z,22.85
2023-02-18T19:30:43.090Z,22.85
2023-02-18T19:33:11.702Z,22.84
2023-02-18T19:35:40.350Z,22.82
2023-02-18T19:38:10.167Z,22.82
2023-02-18T19:40:38.573Z,22.82
2023-02-18T19:43:06.235Z,22.82
2023-02-18T19:45:34.751Z,22.80
2023-02-18T19:48:02.572Z,22.81
2023-02-18T19:50:37.109Z,22.80
2023-02-18T19:53:06.527Z,22.81
2023-02-18T19:55:36.327Z,22.80
2023-02-18T19:58:04.025Z,22.81
2023-02-18T20:00:33.332Z,22.80
2023-02-18T20:03:01.045Z,22.79
2023-02-18T20:05:29.646Z,22.79
2023-02-18T20:07:57.345Z,22.80
2023-02-18T20:10:26.128Z,22.80
2023-02-18T20:12:55.166Z,22.80
2023-02-18T20:15:23.657Z,22.81
2023-02-18T20:17:51.387Z,22.81
2023-02-18T20:20:19.136Z,22.81
2023-02-18T20:22:48.372Z,22.80
2023-02-18T20:25:16.124Z,22.81
2023-02-18T20:27:59.928Z,22.81
2023-02-18T20:30:30.140Z,22.80
2023-02-18T20:32:58.672Z,22.80
2023-02-18T20:35:26.420Z,22.79
2023-02-18T20:37:54.917Z,22.79
2023-02-18T20:40:22.641Z,22.78
2023-02-18T20:42:51.545Z,22.77
2023-02-18T20:45:19.323Z,22.78
2023-02-18T20:47:49.216Z,22.76
2023-02-18T20:50:21.864Z,22.76
2023-02-18T20:52:50.438Z,22.75
2023-02-18T20:55:18.255Z,22.75
2023-02-18T20:57:46.778Z,22.75
2023-02-18T21:00:15.037Z,22.75
2023-02-18T21:02:43.482Z,22.74
2023-02-18T21:05:12.578Z,22.74
2023-02-18T21:07:41.058Z,22.74
2023-02-18T21:10:09.207Z,22.74
2023-02-18T21:12:37.638Z,22.74
2023-02-18T21:15:05.540Z,22.73
2023-02-18T21:17:34.383Z,22.74
2023-02-18T21:20:02.080Z,22.74
2023-02-18T21:22:32.135Z,22.75
2023-02-18T21:25:00.458Z,22.73
2023-02-18T21:27:29.349Z,22.75
2023-02-18T21:29:59.438Z,22.75
2023-02-18T21:32:28.005Z,22.75
2023-02-18T21:34:55.713Z,22.76
2023-02-18T21:37:23.456Z,22.75
2023-02-18T21:39:53.271Z,22.75
2023-02-18T21:42:20.921Z,22.76
2023-02-18T21:44:49.425Z,22.75
2023-02-18T21:47:17.137Z,22.75
2023-02-18T21:49:46.422Z,22.75
2023-02-18T21:52:14.239Z,22.74
2023-02-18T21:54:44.598Z,22.72
2023-02-18T21:57:15.513Z,22.72
2023-02-18T21:59:43.172Z,22.71
2023-02-18T22:02:13.213Z,22.69
2023-02-18T22:08:13.150Z,22.67
2023-02-18T22:10:42.294Z,22.66
2023-02-18T22:13:11.704Z,22.65
2023-02-18T22:15:42.013Z,22.65
2023-02-18T22:18:09.793Z,22.65
2023-02-18T22:20:39.886Z,22.64
2023-02-18T22:23:07.578Z,22.63
2023-02-18T22:25:37.037Z,22.62
2023-02-18T22:28:07.333Z,22.63
2023-02-18T22:30:37.193Z,22.64
2023-02-18T22:33:04.874Z,22.63
2023-02-18T22:35:33.294Z,22.65
2023-02-18T22:38:00.903Z,22.64
2023-02-18T22:40:29.282Z,22.64
2023-02-18T22:42:56.925Z,22.65
2023-02-18T22:45:25.222Z,22.63
2023-02-18T22:47:54.273Z,22.64
2023-02-18T22:50:23.294Z,22.63
2023-02-18T22:52:51.577Z,22.61
2023-02-18T22:55:20.005Z,22.61
2023-02-18T22:57:47.664Z,22.60
2023-02-18T23:00:17.617Z,22.59
2023-02-18T23:02:49.787Z,22.59
2023-02-18T23:05:19.652Z,22.58
2023-02-18T23:07:47.342Z,22.57
2023-02-18T23:10:16.263Z,22.57
2023-02-18T23:12:43.910Z,22.57
2023-02-18T23:15:14.052Z,22.58
2023-02-18T23:17:41.893Z,22.57
2023-02-18T23:20:10.164Z,22.56
2023-02-18T23:22:40.072Z,22.57
2023-02-18T23:25:08.320Z,22.55
2023-02-18T23:27:35.917Z,22.55
2023-02-18T23:30:03.652Z,22.55
2023-02-18T23:32:32.208Z,22.55
2023-02-18T23:34:59.922Z,22.54
2023-02-18T23:37:43.593Z,22.55
2023-02-18T23:40:13.893Z,22.55
2023-02-18T23:42:41.675Z,22.54
2023-02-18T23:45:09.690Z,22.55
2023-02-18T23:47:37.413Z,22.54
2023-02-18T23:50:05.281Z,22.55
2023-02-18T23:52:33.018Z,22.55
2023-02-18T23:55:00.658Z,22.55
2023-02-18T23:57:32.431Z,22.54
